CheckWX is a tool to help pilots better visualize weather data.  It is not intended as a substitute for an official pre-flight weather briefing.

13:56:21 UTC

EBBE METAR
Beauvechain Air Base Airport
Beauvechain, Belgium
Current

31 mins ago

EBBE 131325Z 29012KT 5000 -DZ FEW007 SCT010 BKN014 06/05 Q0979 GRN GRN TEMPO YLO
Observed
Dec-13 @ 13:25 UTC
Wind
  • 290° at 12 KTS
Visibility
5,000 meters
Flight Rules
MVFR
Conditions
Light Drizzle
Cloud Levels
  • Few at 700' AGL
  • Scattered at 1,000' AGL
  • Broken at 1,400' AGL
Temperature
C / 43°F
Dewpoint
C / 41°F
Humidity
93%
Altimeter
28.91" Hg
Pressure
978.92 hPa
Previous

1 hour ago

EBBE 131255Z 29015KT 5000 DZ FEW007 SCT010 BKN014 06/05 Q0979 GRN GRN TEMPO YLO
Observed
Dec-13 @ 12:55 UTC
Wind
  • 290° at 15 KTS
Visibility
5,000 meters
Flight Rules
MVFR
Conditions
Drizzle
Cloud Levels
  • Few at 700' AGL
  • Scattered at 1,000' AGL
  • Broken at 1,400' AGL
Temperature
C / 43°F
Dewpoint
C / 41°F
Humidity
93%
Altimeter
28.91" Hg
Pressure
978.92 hPa
Previous

1 hour ago

EBBE 131244Z 28013KT 8000 -DZ FEW007 SCT010 BKN014 06/04 Q0978 GRN GRN TEMPO YLO
Observed
Dec-13 @ 12:44 UTC
Wind
  • 280° at 13 KTS
Visibility
8,000 meters
Flight Rules
MVFR
Conditions
Light Drizzle
Cloud Levels
  • Few at 700' AGL
  • Scattered at 1,000' AGL
  • Broken at 1,400' AGL
Temperature
C / 43°F
Dewpoint
C / 39°F
Humidity
87%
Altimeter
28.88" Hg
Pressure
977.92 hPa